sensor_id;sensor_type;location;lat;lon;timestamp;pressure;altitude;pressure_sealevel;temperature;humidity
73297;BME280;61524;50.938;11.396;2023-04-22T00:01:27;98636.75;;;8.72;80.19
73297;BME280;61524;50.938;11.396;2023-04-22T00:03:53;98632.72;;;8.70;80.54
73297;BME280;61524;50.938;11.396;2023-04-22T00:06:18;98642.38;;;8.76;79.80
73297;BME280;61524;50.938;11.396;2023-04-22T00:08:44;98632.00;;;8.57;80.78
73297;BME280;61524;50.938;11.396;2023-04-22T00:11:09;98623.88;;;8.47;80.86
73297;BME280;61524;50.938;11.396;2023-04-22T00:13:35;98623.69;;;8.37;81.91
73297;BME280;61524;50.938;11.396;2023-04-22T00:16:02;98609.94;;;8.28;83.09
73297;BME280;61524;50.938;11.396;2023-04-22T00:18:28;98625.38;;;8.43;81.60
73297;BME280;61524;50.938;11.396;2023-04-22T00:20:53;98613.41;;;8.12;83.32
73297;BME280;61524;50.938;11.396;2023-04-22T00:23:19;98606.09;;;8.19;83.10
73297;BME280;61524;50.938;11.396;2023-04-22T00:25:44;98600.28;;;8.05;83.11
73297;BME280;61524;50.938;11.396;2023-04-22T00:28:10;98622.19;;;8.12;83.39
73297;BME280;61524;50.938;11.396;2023-04-22T00:30:35;98607.25;;;7.78;83.84
73297;BME280;61524;50.938;11.396;2023-04-22T00:33:01;98598.00;;;7.80;83.78
73297;BME280;61524;50.938;11.396;2023-04-22T00:35:26;98615.88;;;7.85;84.37
73297;BME280;61524;50.938;11.396;2023-04-22T00:37:52;98611.00;;;8.10;82.78
73297;BME280;61524;50.938;11.396;2023-04-22T00:40:18;98591.91;;;8.13;82.43
73297;BME280;61524;50.938;11.396;2023-04-22T00:42:43;98609.06;;;8.23;81.93
73297;BME280;61524;50.938;11.396;2023-04-22T00:45:10;98614.75;;;8.43;81.23
73297;BME280;61524;50.938;11.396;2023-04-22T00:47:36;98613.75;;;8.32;82.03
73297;BME280;61524;50.938;11.396;2023-04-22T00:50:02;98605.22;;;8.47;81.38
73297;BME280;61524;50.938;11.396;2023-04-22T00:52:28;98611.44;;;8.36;81.68
73297;BME280;61524;50.938;11.396;2023-04-22T00:54:54;98609.13;;;8.11;82.74
73297;BME280;61524;50.938;11.396;2023-04-22T00:57:19;98600.22;;;7.72;83.46
73297;BME280;61524;50.938;11.396;2023-04-22T00:59:45;98606.00;;;7.69;83.88
73297;BME280;61524;50.938;11.396;2023-04-22T01:02:11;98601.34;;;7.59;83.71
73297;BME280;61524;50.938;11.396;2023-04-22T01:04:37;98592.59;;;7.75;83.57
73297;BME280;61524;50.938;11.396;2023-04-22T01:07:03;98600.44;;;7.99;82.65
73297;BME280;61524;50.938;11.396;2023-04-22T01:09:29;98605.03;;;8.03;81.60
73297;BME280;61524;50.938;11.396;2023-04-22T01:11:55;98589.78;;;7.82;83.00
73297;BME280;61524;50.938;11.396;2023-04-22T01:14:21;98596.69;;;7.66;83.60
73297;BME280;61524;50.938;11.396;2023-04-22T01:16:46;98581.22;;;7.80;83.15
73297;BME280;61524;50.938;11.396;2023-04-22T01:19:12;98599.53;;;7.93;82.64
73297;BME280;61524;50.938;11.396;2023-04-22T01:21:39;98595.03;;;8.10;82.27
73297;BME280;61524;50.938;11.396;2023-04-22T01:24:06;98582.63;;;7.99;81.13
73297;BME280;61524;50.938;11.396;2023-04-22T01:26:32;98595.44;;;8.02;81.53
73297;BME280;61524;50.938;11.396;2023-04-22T01:28:57;98595.41;;;7.85;82.03
73297;BME280;61524;50.938;11.396;2023-04-22T01:31:25;98589.34;;;7.73;82.63
73297;BME280;61524;50.938;11.396;2023-04-22T01:33:52;98589.25;;;7.68;83.10
73297;BME280;61524;50.938;11.396;2023-04-22T01:36:18;98594.06;;;7.54;83.47
73297;BME280;61524;50.938;11.396;2023-04-22T01:38:43;98599.56;;;7.65;83.55
73297;BME280;61524;50.938;11.396;2023-04-22T01:41:09;98603.41;;;7.57;83.58
73297;BME280;61524;50.938;11.396;2023-04-22T01:43:35;98591.97;;;7.56;83.76
73297;BME280;61524;50.938;11.396;2023-04-22T01:46:00;98605.44;;;7.67;83.51
73297;BME280;61524;50.938;11.396;2023-04-22T01:48:26;98592.69;;;7.80;82.49
73297;BME280;61524;50.938;11.396;2023-04-22T01:50:52;98601.22;;;7.82;82.81
73297;BME280;61524;50.938;11.396;2023-04-22T01:53:17;98590.50;;;7.94;81.47
73297;BME280;61524;50.938;11.396;2023-04-22T01:55:43;98594.47;;;7.92;81.70
73297;BME280;61524;50.938;11.396;2023-04-22T01:58:09;98596.38;;;7.96;81.21
73297;BME280;61524;50.938;11.396;2023-04-22T02:00:34;98589.38;;;7.90;81.09
73297;BME280;61524;50.938;11.396;2023-04-22T02:03:00;98595.38;;;7.69;82.80
73297;BME280;61524;50.938;11.396;2023-04-22T02:05:26;98585.00;;;7.67;82.51
73297;BME280;61524;50.938;11.396;2023-04-22T02:07:52;98598.38;;;7.72;82.37
73297;BME280;61524;50.938;11.396;2023-04-22T02:10:17;98594.19;;;7.76;82.58
73297;BME280;61524;50.938;11.396;2023-04-22T02:12:43;98597.66;;;7.77;82.18
73297;BME280;61524;50.938;11.396;2023-04-22T02:15:09;98611.97;;;8.04;81.00
73297;BME280;61524;50.938;11.396;2023-04-22T02:17:34;98598.81;;;7.98;80.62
73297;BME280;61524;50.938;11.396;2023-04-22T02:20:01;98601.25;;;8.16;81.19
73297;BME280;61524;50.938;11.396;2023-04-22T02:22:27;98587.38;;;7.97;80.19
73297;BME280;61524;50.938;11.396;2023-04-22T02:24:54;98601.25;;;7.99;80.84
73297;BME280;61524;50.938;11.396;2023-04-22T02:27:20;98597.06;;;8.03;80.59
73297;BME280;61524;50.938;11.396;2023-04-22T02:29:46;98597.13;;;8.08;80.05
73297;BME280;61524;50.938;11.396;2023-04-22T02:32:12;98596.97;;;8.15;79.65
73297;BME280;61524;50.938;11.396;2023-04-22T02:34:38;98586.97;;;8.05;80.34
73297;BME280;61524;50.938;11.396;2023-04-22T02:37:03;98608.50;;;8.21;79.88
73297;BME280;61524;50.938;11.396;2023-04-22T02:39:29;98603.34;;;8.14;79.09
73297;BME280;61524;50.938;11.396;2023-04-22T02:41:55;98602.72;;;8.24;79.30
73297;BME280;61524;50.938;11.396;2023-04-22T02:44:21;98612.88;;;8.44;78.28
73297;BME280;61524;50.938;11.396;2023-04-22T02:46:46;98607.72;;;8.37;78.81
73297;BME280;61524;50.938;11.396;2023-04-22T02:49:11;98613.47;;;8.46;78.31
73297;BME280;61524;50.938;11.396;2023-04-22T02:51:37;98603.44;;;8.19;79.88
73297;BME280;61524;50.938;11.396;2023-04-22T02:54:03;98602.84;;;8.34;79.60
73297;BME280;61524;50.938;11.396;2023-04-22T02:56:29;98608.06;;;8.40;79.31
73297;BME280;61524;50.938;11.396;2023-04-22T02:58:55;98603.53;;;8.41;79.54
73297;BME280;61524;50.938;11.396;2023-04-22T03:01:21;98600.63;;;8.43;79.46
73297;BME280;61524;50.938;11.396;2023-04-22T03:03:46;98607.47;;;8.55;79.05
73297;BME280;61524;50.938;11.396;2023-04-22T03:06:12;98600.69;;;8.64;77.41
73297;BME280;61524;50.938;11.396;2023-04-22T03:08:37;98593.66;;;8.58;78.41
73297;BME280;61524;50.938;11.396;2023-04-22T03:11:03;98609.53;;;8.70;77.98
73297;BME280;61524;50.938;11.396;2023-04-22T03:13:29;98597.38;;;8.96;77.48
73297;BME280;61524;50.938;11.396;2023-04-22T03:15:54;98581.06;;;8.92;76.76
73297;BME280;61524;50.938;11.396;2023-04-22T03:18:20;98588.09;;;9.20;75.90
73297;BME280;61524;50.938;11.396;2023-04-22T03:20:45;98587.78;;;9.39;75.40
73297;BME280;61524;50.938;11.396;2023-04-22T03:23:11;98555.56;;;9.18;75.14
73297;BME280;61524;50.938;11.396;2023-04-22T03:25:36;98588.09;;;9.69;74.18
73297;BME280;61524;50.938;11.396;2023-04-22T03:28:03;98593.22;;;9.76;73.98
73297;BME280;61524;50.938;11.396;2023-04-22T03:30:28;98598.34;;;9.56;74.90
73297;BME280;61524;50.938;11.396;2023-04-22T03:32:55;98595.69;;;9.56;73.65
73297;BME280;61524;50.938;11.396;2023-04-22T03:35:20;98594.78;;;9.72;73.86
73297;BME280;61524;50.938;11.396;2023-04-22T03:37:46;98596.75;;;9.82;73.55
73297;BME280;61524;50.938;11.396;2023-04-22T03:40:11;98600.91;;;9.72;73.39
73297;BME280;61524;50.938;11.396;2023-04-22T03:42:37;98589.72;;;9.70;74.43
73297;BME280;61524;50.938;11.396;2023-04-22T03:45:02;98585.19;;;9.71;73.39
73297;BME280;61524;50.938;11.396;2023-04-22T03:47:28;98597.16;;;9.95;72.80
73297;BME280;61524;50.938;11.396;2023-04-22T03:49:53;98604.09;;;9.96;72.34
73297;BME280;61524;50.938;11.396;2023-04-22T03:52:19;98593.28;;;10.13;72.04
73297;BME280;61524;50.938;11.396;2023-04-22T03:54:44;98602.31;;;10.07;72.34
73297;BME280;61524;50.938;11.396;2023-04-22T03:57:09;98602.41;;;10.17;71.56
73297;BME280;61524;50.938;11.396;2023-04-22T03:59:35;98587.66;;;10.10;71.55
73297;BME280;61524;50.938;11.396;2023-04-22T04:02:00;98592.72;;;10.11;71.95
73297;BME280;61524;50.938;11.396;2023-04-22T04:04:26;98591.59;;;10.02;72.51
73297;BME280;61524;50.938;11.396;2023-04-22T04:06:54;98599.66;;;10.07;71.79
73297;BME280;61524;50.938;11.396;2023-04-22T04:09:19;98589.69;;;9.97;71.37
73297;BME280;61524;50.938;11.396;2023-04-22T04:11:45;98609.09;;;10.20;70.91
73297;BME280;61524;50.938;11.396;2023-04-22T04:14:10;98598.56;;;10.35;71.17
73297;BME280;61524;50.938;11.396;2023-04-22T04:16:36;98598.31;;;10.37;71.23
73297;BME280;61524;50.938;11.396;2023-04-22T04:19:02;98603.88;;;10.30;72.07
73297;BME280;61524;50.938;11.396;2023-04-22T04:21:28;98595.38;;;10.38;70.47
73297;BME280;61524;50.938;11.396;2023-04-22T04:23:53;98613.34;;;10.48;70.34
73297;BME280;61524;50.938;11.396;2023-04-22T04:26:19;98606.47;;;10.57;70.41
73297;BME280;61524;50.938;11.396;2023-04-22T04:28:45;98602.22;;;10.61;69.94
73297;BME280;61524;50.938;11.396;2023-04-22T04:31:11;98606.97;;;10.54;71.38
73297;BME280;61524;50.938;11.396;2023-04-22T04:33:37;98605.03;;;10.82;68.98
73297;BME280;61524;50.938;11.396;2023-04-22T04:36:03;98613.31;;;10.85;69.05
73297;BME280;61524;50.938;11.396;2023-04-22T04:38:29;98613.09;;;10.92;69.25
73297;BME280;61524;50.938;11.396;2023-04-22T04:40:55;98606.94;;;10.91;68.71
73297;BME280;61524;50.938;11.396;2023-04-22T04:43:20;98608.84;;;11.01;69.19
73297;BME280;61524;50.938;11.396;2023-04-22T04:45:50;98602.22;;;11.14;68.81
73297;BME280;61524;50.938;11.396;2023-04-22T04:48:15;98602.59;;;11.33;68.15
73297;BME280;61524;50.938;11.396;2023-04-22T04:50:41;98605.31;;;11.48;68.53
73297;BME280;61524;50.938;11.396;2023-04-22T04:53:08;98603.91;;;11.25;67.67
73297;BME280;61524;50.938;11.396;2023-04-22T04:55:34;98611.50;;;11.59;67.37
73297;BME280;61524;50.938;11.396;2023-04-22T04:57:59;98595.47;;;11.64;67.08
73297;BME280;61524;50.938;11.396;2023-04-22T05:00:25;98602.22;;;11.81;67.03
73297;BME280;61524;50.938;11.396;2023-04-22T05:02:50;98613.22;;;12.05;66.20
73297;BME280;61524;50.938;11.396;2023-04-22T05:05:16;98608.66;;;12.62;65.12
73297;BME280;61524;50.938;11.396;2023-04-22T05:07:41;98621.44;;;12.96;64.32
73297;BME280;61524;50.938;11.396;2023-04-22T05:10:08;98613.16;;;12.97;64.25
73297;BME280;61524;50.938;11.396;2023-04-22T05:12:33;98617.03;;;13.46;63.69
73297;BME280;61524;50.938;11.396;2023-04-22T05:14:59;98616.41;;;13.59;60.91
73297;BME280;61524;50.938;11.396;2023-04-22T05:17:25;98609.00;;;14.24;61.00
73297;BME280;61524;50.938;11.396;2023-04-22T05:19:51;98628.44;;;14.11;60.71
73297;BME280;61524;50.938;11.396;2023-04-22T05:22:16;98621.38;;;14.59;60.16
73297;BME280;61524;50.938;11.396;2023-04-22T05:24:42;98625.16;;;14.58;58.84
73297;BME280;61524;50.938;11.396;2023-04-22T05:27:08;98628.34;;;14.26;60.74
73297;BME280;61524;50.938;11.396;2023-04-22T05:29:33;98615.94;;;14.64;60.17
73297;BME280;61524;50.938;11.396;2023-04-22T05:31:59;98620.94;;;14.76;60.01
73297;BME280;61524;50.938;11.396;2023-04-22T05:34:24;98629.59;;;14.68;59.85
73297;BME280;61524;50.938;11.396;2023-04-22T05:36:50;98625.59;;;14.94;59.68
73297;BME280;61524;50.938;11.396;2023-04-22T05:39:15;98619.81;;;15.30;58.83
73297;BME280;61524;50.938;11.396;2023-04-22T05:41:41;98613.13;;;15.89;57.92
73297;BME280;61524;50.938;11.396;2023-04-22T05:44:06;98610.72;;;15.69;58.42
73297;BME280;61524;50.938;11.396;2023-04-22T05:46:32;98602.28;;;15.75;58.27
73297;BME280;61524;50.938;11.396;2023-04-22T05:48:57;98606.41;;;15.87;58.45
73297;BME280;61524;50.938;11.396;2023-04-22T05:51:23;98598.59;;;16.23;59.10
73297;BME280;61524;50.938;11.396;2023-04-22T05:53:49;98615.41;;;16.34;58.22
73297;BME280;61524;50.938;11.396;2023-04-22T05:56:15;98611.00;;;15.86;57.72
73297;BME280;61524;50.938;11.396;2023-04-22T05:58:40;98618.16;;;15.53;60.45
73297;BME280;61524;50.938;11.396;2023-04-22T06:01:06;98614.13;;;15.32;61.16
73297;BME280;61524;50.938;11.396;2023-04-22T06:03:31;98609.44;;;15.42;60.43
73297;BME280;61524;50.938;11.396;2023-04-22T06:05:57;98596.09;;;15.32;61.16
73297;BME280;61524;50.938;11.396;2023-04-22T06:08:23;98599.72;;;15.65;59.77
73297;BME280;61524;50.938;11.396;2023-04-22T06:10:48;98603.53;;;15.40;61.07
73297;BME280;61524;50.938;11.396;2023-04-22T06:13:14;98582.56;;;15.37;60.96
73297;BME280;61524;50.938;11.396;2023-04-22T06:15:39;98590.13;;;15.78;60.23
73297;BME280;61524;50.938;11.396;2023-04-22T06:18:05;98596.66;;;16.10;60.77
73297;BME280;61524;50.938;11.396;2023-04-22T06:20:30;98595.50;;;16.16;57.96
73297;BME280;61524;50.938;11.396;2023-04-22T06:23:00;98597.28;;;15.88;58.25
73297;BME280;61524;50.938;11.396;2023-04-22T06:25:26;98593.31;;;15.80;59.33
73297;BME280;61524;50.938;11.396;2023-04-22T06:27:51;98596.28;;;16.16;57.61
73297;BME280;61524;50.938;11.396;2023-04-22T06:30:17;98592.78;;;16.16;57.18
73297;BME280;61524;50.938;11.396;2023-04-22T06:32:42;98608.41;;;16.65;57.87
73297;BME280;61524;50.938;11.396;2023-04-22T06:35:08;98609.94;;;16.71;57.05
73297;BME280;61524;50.938;11.396;2023-04-22T06:37:33;98595.97;;;16.50;57.34
73297;BME280;61524;50.938;11.396;2023-04-22T06:39:59;98600.78;;;17.00;55.69
73297;BME280;61524;50.938;11.396;2023-04-22T06:42:24;98620.06;;;17.48;54.45
73297;BME280;61524;50.938;11.396;2023-04-22T06:44:50;98621.75;;;17.72;53.98
73297;BME280;61524;50.938;11.396;2023-04-22T06:47:15;98609.09;;;18.17;53.30
73297;BME280;61524;50.938;11.396;2023-04-22T06:49:41;98605.59;;;18.17;52.78
73297;BME280;61524;50.938;11.396;2023-04-22T06:52:07;98601.53;;;17.83;53.28
73297;BME280;61524;50.938;11.396;2023-04-22T06:54:33;98608.81;;;17.69;55.00
73297;BME280;61524;50.938;11.396;2023-04-22T06:56:58;98617.69;;;17.97;53.81
73297;BME280;61524;50.938;11.396;2023-04-22T06:59:24;98604.34;;;18.45;52.71
73297;BME280;61524;50.938;11.396;2023-04-22T07:01:49;98616.22;;;18.58;52.93
73297;BME280;61524;50.938;11.396;2023-04-22T07:04:15;98619.09;;;18.61;53.60
73297;BME280;61524;50.938;11.396;2023-04-22T07:06:41;98620.81;;;18.80;51.73
73297;BME280;61524;50.938;11.396;2023-04-22T07:09:07;98604.31;;;18.36;52.86
73297;BME280;61524;50.938;11.396;2023-04-22T07:11:33;98612.25;;;18.86;53.20
73297;BME280;61524;50.938;11.396;2023-04-22T07:13:58;98597.06;;;18.77;52.80
73297;BME280;61524;50.938;11.396;2023-04-22T07:16:24;98594.50;;;18.72;53.73
73297;BME280;61524;50.938;11.396;2023-04-22T07:18:50;98600.56;;;18.69;53.24
73297;BME280;61524;50.938;11.396;2023-04-22T07:21:15;98593.94;;;18.83;53.62
73297;BME280;61524;50.938;11.396;2023-04-22T07:23:41;98595.97;;;18.55;52.51
73297;BME280;61524;50.938;11.396;2023-04-22T07:26:06;98576.94;;;18.38;52.76
73297;BME280;61524;50.938;11.396;2023-04-22T07:28:32;98578.53;;;18.39;53.37
73297;BME280;61524;50.938;11.396;2023-04-22T07:30:57;98584.81;;;18.48;53.05
73297;BME280;61524;50.938;11.396;2023-04-22T07:33:22;98589.94;;;18.81;54.48
73297;BME280;61524;50.938;11.396;2023-04-22T07:35:48;98587.38;;;19.24;53.56
73297;BME280;61524;50.938;11.396;2023-04-22T07:38:14;98579.22;;;19.15;52.51
73297;BME280;61524;50.938;11.396;2023-04-22T07:40:39;98587.81;;;19.00;53.64
73297;BME280;61524;50.938;11.396;2023-04-22T07:43:05;98590.78;;;18.90;53.75
73297;BME280;61524;50.938;11.396;2023-04-22T07:45:31;98582.00;;;19.41;53.60
73297;BME280;61524;50.938;11.396;2023-04-22T07:47:57;98580.75;;;19.48;55.29
73297;BME280;61524;50.938;11.396;2023-04-22T07:50:22;98584.81;;;19.19;53.98
73297;BME280;61524;50.938;11.396;2023-04-22T07:52:48;98583.28;;;19.27;53.95
73297;BME280;61524;50.938;11.396;2023-04-22T07:55:13;98586.00;;;19.53;54.00
73297;BME280;61524;50.938;11.396;2023-04-22T07:57:39;98568.31;;;19.38;53.40
73297;BME280;61524;50.938;11.396;2023-04-22T08:00:08;98579.19;;;19.64;54.00
73297;BME280;61524;50.938;11.396;2023-04-22T08:02:34;98579.44;;;19.28;53.84
73297;BME280;61524;50.938;11.396;2023-04-22T08:05:00;98570.22;;;19.37;53.43
73297;BME280;61524;50.938;11.396;2023-04-22T08:07:26;98564.22;;;19.66;53.70
73297;BME280;61524;50.938;11.396;2023-04-22T08:09:52;98570.75;;;20.09;53.14
73297;BME280;61524;50.938;11.396;2023-04-22T08:12:17;98584.47;;;20.12;53.95
73297;BME280;61524;50.938;11.396;2023-04-22T08:14:43;98565.97;;;20.14;51.11
73297;BME280;61524;50.938;11.396;2023-04-22T08:17:08;98567.88;;;20.05;52.04
73297;BME280;61524;50.938;11.396;2023-04-22T08:19:34;98571.22;;;20.19;53.56
73297;BME280;61524;50.938;11.396;2023-04-22T08:21:59;98576.00;;;20.40;51.68
73297;BME280;61524;50.938;11.396;2023-04-22T08:24:25;98569.22;;;20.72;52.64
73297;BME280;61524;50.938;11.396;2023-04-22T08:26:51;98564.00;;;20.50;50.96
73297;BME280;61524;50.938;11.396;2023-04-22T08:29:16;98564.75;;;20.67;52.37
73297;BME280;61524;50.938;11.396;2023-04-22T08:31:41;98563.00;;;21.10;52.27
73297;BME280;61524;50.938;11.396;2023-04-22T08:34:07;98564.25;;;20.74;51.84
73297;BME280;61524;50.938;11.396;2023-04-22T08:36:33;98568.78;;;20.53;51.12
73297;BME280;61524;50.938;11.396;2023-04-22T08:38:59;98574.41;;;20.30;49.98
73297;BME280;61524;50.938;11.396;2023-04-22T08:41:24;98565.75;;;20.45;51.50
73297;BME280;61524;50.938;11.396;2023-04-22T08:43:51;98552.66;;;20.56;50.00
73297;BME280;61524;50.938;11.396;2023-04-22T08:46:17;98554.91;;;20.92;50.51
73297;BME280;61524;50.938;11.396;2023-04-22T08:48:46;98562.78;;;20.77;48.68
73297;BME280;61524;50.938;11.396;2023-04-22T08:51:14;98552.53;;;20.91;49.64
73297;BME280;61524;50.938;11.396;2023-04-22T08:53:40;98544.09;;;21.13;48.13
73297;BME280;61524;50.938;11.396;2023-04-22T08:56:06;98551.00;;;21.11;49.01
73297;BME280;61524;50.938;11.396;2023-04-22T08:58:32;98549.41;;;20.71;48.11
73297;BME280;61524;50.938;11.396;2023-04-22T09:00:59;98540.00;;;20.98;49.28
73297;BME280;61524;50.938;11.396;2023-04-22T09:03:25;98540.75;;;21.16;49.51
73297;BME280;61524;50.938;11.396;2023-04-22T09:05:52;98545.47;;;21.28;48.97
73297;BME280;61524;50.938;11.396;2023-04-22T09:08:18;98546.97;;;21.17;46.63
73297;BME280;61524;50.938;11.396;2023-04-22T09:10:44;98548.56;;;21.18;47.72
73297;BME280;61524;50.938;11.396;2023-04-22T09:13:09;98544.03;;;20.92;48.72
73297;BME280;61524;50.938;11.396;2023-04-22T09:15:37;98542.50;;;20.83;46.59
73297;BME280;61524;50.938;11.396;2023-04-22T09:18:03;98535.56;;;21.23;49.87
73297;BME280;61524;50.938;11.396;2023-04-22T09:20:30;98529.78;;;21.04;48.63
73297;BME280;61524;50.938;11.396;2023-04-22T09:22:57;98542.84;;;21.40;47.75
73297;BME280;61524;50.938;11.396;2023-04-22T09:25:26;98543.84;;;21.57;48.01
73297;BME280;61524;50.938;11.396;2023-04-22T09:27:57;98541.34;;;21.22;48.32
73297;BME280;61524;50.938;11.396;2023-04-22T09:30:29;98531.31;;;21.43;47.75
73297;BME280;61524;50.938;11.396;2023-04-22T09:32:59;98543.13;;;21.47;48.82
73297;BME280;61524;50.938;11.396;2023-04-22T09:37:57;98536.09;;;21.67;46.46
73297;BME280;61524;50.938;11.396;2023-04-22T09:40:24;98526.25;;;21.96;48.19
73297;BME280;61524;50.938;11.396;2023-04-22T09:42:51;98527.56;;;21.90;48.71
73297;BME280;61524;50.938;11.396;2023-04-22T09:45:25;98517.94;;;21.59;48.26
73297;BME280;61524;50.938;11.396;2023-04-22T09:47:53;98527.53;;;21.78;48.08
73297;BME280;61524;50.938;11.396;2023-04-22T09:50:19;98524.69;;;21.74;48.99
73297;BME280;61524;50.938;11.396;2023-04-22T09:52:52;98522.19;;;21.48;45.86
73297;BME280;61524;50.938;11.396;2023-04-22T09:55:18;98519.13;;;21.70;46.19
73297;BME280;61524;50.938;11.396;2023-04-22T09:57:44;98523.75;;;21.91;48.24
73297;BME280;61524;50.938;11.396;2023-04-22T10:00:12;98514.28;;;22.09;47.97
73297;BME280;61524;50.938;11.396;2023-04-22T10:02:38;98523.47;;;21.84;47.38
73297;BME280;61524;50.938;11.396;2023-04-22T10:05:03;98512.03;;;22.11;47.27
73297;BME280;61524;50.938;11.396;2023-04-22T10:07:29;98521.19;;;21.53;47.65
73297;BME280;61524;50.938;11.396;2023-04-22T10:09:56;98520.50;;;22.10;47.06
73297;BME280;61524;50.938;11.396;2023-04-22T10:12:22;98517.28;;;21.95;48.27
73297;BME280;61524;50.938;11.396;2023-04-22T10:14:48;98511.69;;;21.80;45.72
73297;BME280;61524;50.938;11.396;2023-04-22T10:17:13;98511.03;;;22.16;45.60
73297;BME280;61524;50.938;11.396;2023-04-22T10:19:41;98505.75;;;21.98;46.79
73297;BME280;61524;50.938;11.396;2023-04-22T10:22:09;98492.59;;;22.00;46.00
73297;BME280;61524;50.938;11.396;2023-04-22T10:24:35;98494.66;;;22.04;46.85
73297;BME280;61524;50.938;11.396;2023-04-22T10:27:03;98496.38;;;22.08;46.72
73297;BME280;61524;50.938;11.396;2023-04-22T10:29:39;98484.88;;;22.36;47.99
73297;BME280;61524;50.938;11.396;2023-04-22T10:34:35;98481.56;;;22.88;48.17
73297;BME280;61524;50.938;11.396;2023-04-22T10:37:08;98487.09;;;22.67;47.62
73297;BME280;61524;50.938;11.396;2023-04-22T10:39:35;98473.25;;;22.72;46.56
73297;BME280;61524;50.938;11.396;2023-04-22T10:42:07;98469.91;;;23.27;44.26
73297;BME280;61524;50.938;11.396;2023-04-22T10:44:50;98472.97;;;23.26;47.04
73297;BME280;61524;50.938;11.396;2023-04-22T10:47:38;98473.91;;;23.05;44.64
73297;BME280;61524;50.938;11.396;2023-04-22T10:50:19;98473.34;;;22.75;47.20
73297;BME280;61524;50.938;11.396;2023-04-22T10:52:48;98477.47;;;22.94;44.78
73297;BME280;61524;50.938;11.396;2023-04-22T10:55:15;98458.13;;;22.74;44.16
73297;BME280;61524;50.938;11.396;2023-04-22T10:57:42;98474.03;;;22.60;45.11
73297;BME280;61524;50.938;11.396;2023-04-22T11:00:28;98468.59;;;22.60;42.62
73297;BME280;61524;50.938;11.396;2023-04-22T11:03:14;98464.97;;;22.56;43.73
73297;BME280;61524;50.938;11.396;2023-04-22T11:05:41;98464.38;;;22.50;43.89
73297;BME280;61524;50.938;11.396;2023-04-22T11:08:17;98471.06;;;22.53;44.20
73297;BME280;61524;50.938;11.396;2023-04-22T11:10:46;98464.63;;;22.82;44.58
73297;BME280;61524;50.938;11.396;2023-04-22T11:13:14;98460.63;;;23.16;44.40
73297;BME280;61524;50.938;11.396;2023-04-22T11:15:42;98466.19;;;23.20;42.58
73297;BME280;61524;50.938;11.396;2023-04-22T11:18:11;98461.56;;;22.96;44.55
73297;BME280;61524;50.938;11.396;2023-04-22T11:20:38;98456.88;;;22.84;43.60
73297;BME280;61524;50.938;11.396;2023-04-22T11:23:04;98447.00;;;22.43;43.68
73297;BME280;61524;50.938;11.396;2023-04-22T11:25:30;98452.56;;;22.83;44.00
73297;BME280;61524;50.938;11.396;2023-04-22T11:27:55;98455.41;;;23.11;42.86
73297;BME280;61524;50.938;11.396;2023-04-22T11:30:24;98444.75;;;22.94;41.13
73297;BME280;61524;50.938;11.396;2023-04-22T11:32:52;98444.31;;;22.67;41.00
73297;BME280;61524;50.938;11.396;2023-04-22T11:35:23;98439.09;;;22.62;45.29
73297;BME280;61524;50.938;11.396;2023-04-22T11:37:53;98445.00;;;22.89;41.44
73297;BME280;61524;50.938;11.396;2023-04-22T11:40:22;98445.28;;;23.12;40.06
73297;BME280;61524;50.938;11.396;2023-04-22T11:42:50;98433.94;;;22.97;41.27
73297;BME280;61524;50.938;11.396;2023-04-22T11:45:15;98429.97;;;23.19;42.42
73297;BME280;61524;50.938;11.396;2023-04-22T11:47:42;98424.88;;;22.69;43.45
73297;BME280;61524;50.938;11.396;2023-04-22T11:50:11;98425.22;;;22.43;42.18
73297;BME280;61524;50.938;11.396;2023-04-22T11:55:37;98430.91;;;22.74;42.84
73297;BME280;61524;50.938;11.396;2023-04-22T11:58:15;98427.97;;;22.55;42.51
73297;BME280;61524;50.938;11.396;2023-04-22T12:00:49;98424.50;;;23.19;44.19
73297;BME280;61524;50.938;11.396;2023-04-22T12:05:52;98427.19;;;23.31;42.55
73297;BME280;61524;50.938;11.396;2023-04-22T12:08:19;98419.81;;;23.32;41.63
73297;BME280;61524;50.938;11.396;2023-04-22T12:10:48;98418.47;;;23.14;43.18
73297;BME280;61524;50.938;11.396;2023-04-22T12:16:05;98410.94;;;22.95;41.85
73297;BME280;61524;50.938;11.396;2023-04-22T12:18:35;98411.94;;;22.90;43.13
73297;BME280;61524;50.938;11.396;2023-04-22T12:21:10;98401.63;;;23.24;43.86
73297;BME280;61524;50.938;11.396;2023-04-22T12:23:44;98396.50;;;22.94;41.86
73297;BME280;61524;50.938;11.396;2023-04-22T12:26:10;98388.50;;;23.14;43.07
73297;BME280;61524;50.938;11.396;2023-04-22T12:28:36;98393.16;;;23.13;40.42
73297;BME280;61524;50.938;11.396;2023-04-22T12:31:02;98395.03;;;23.37;39.24
73297;BME280;61524;50.938;11.396;2023-04-22T12:33:28;98394.41;;;23.44;42.05
73297;BME280;61524;50.938;11.396;2023-04-22T12:35:53;98402.09;;;23.26;43.38
73297;BME280;61524;50.938;11.396;2023-04-22T12:38:18;98402.06;;;22.98;42.74
73297;BME280;61524;50.938;11.396;2023-04-22T12:40:44;98405.06;;;23.21;40.89
73297;BME280;61524;50.938;11.396;2023-04-22T12:43:09;98393.47;;;23.24;43.01
73297;BME280;61524;50.938;11.396;2023-04-22T12:45:36;98396.00;;;23.17;41.88
73297;BME280;61524;50.938;11.396;2023-04-22T12:48:01;98393.94;;;23.26;42.96
73297;BME280;61524;50.938;11.396;2023-04-22T12:50:27;98396.91;;;23.21;40.63
73297;BME280;61524;50.938;11.396;2023-04-22T12:52:52;98390.91;;;23.15;40.57
73297;BME280;61524;50.938;11.396;2023-04-22T12:55:18;98384.31;;;23.16;41.32
73297;BME280;61524;50.938;11.396;2023-04-22T12:57:47;98384.31;;;23.16;40.98
73297;BME280;61524;50.938;11.396;2023-04-22T13:00:13;98370.53;;;23.25;41.71
73297;BME280;61524;50.938;11.396;2023-04-22T13:02:43;98373.34;;;23.28;43.47